createdAt,value
2022-10-20T05:02:33.553Z,101367.80
2022-10-20T05:05:03.105Z,101364.55
2022-10-20T05:07:32.604Z,101369.08
2022-10-20T05:10:02.064Z,101371.73
2022-10-20T05:12:30.859Z,101372.75
2022-10-20T05:15:00.047Z,101376.17
2022-10-20T05:17:31.985Z,101376.17
2022-10-20T05:20:00.964Z,101376.40
2022-10-20T05:22:31.294Z,101375.27
2022-10-20T05:25:12.835Z,101375.45
2022-10-20T05:27:50.153Z,101379.60
2022-10-20T05:30:19.295Z,101380.98
2022-10-20T05:32:48.270Z,101380.70
2022-10-20T05:35:17.292Z,101382.06
2022-10-20T05:37:46.327Z,101385.21
2022-10-20T05:40:15.301Z,101392.82
2022-10-20T05:42:44.162Z,101396.19
2022-10-20T05:45:13.008Z,101394.77
2022-10-20T05:47:43.318Z,101398.15
2022-10-20T05:50:12.283Z,101399.08
2022-10-20T05:52:41.471Z,101406.33
2022-10-20T05:55:10.902Z,101404.89
2022-10-20T05:57:39.880Z,101409.92
2022-10-20T06:00:09.708Z,101408.14
2022-10-20T06:02:41.657Z,101410.48
2022-10-20T06:05:10.648Z,101417.89
2022-10-20T06:07:39.848Z,101416.09
2022-10-20T06:10:09.004Z,101415.98
2022-10-20T06:12:38.298Z,101416.20
2022-10-20T06:15:08.739Z,101416.36
2022-10-20T06:17:38.041Z,101414.59
2022-10-20T06:20:07.207Z,101412.40
2022-10-20T06:22:37.277Z,101417.95
2022-10-20T06:25:07.108Z,101418.83
2022-10-20T06:27:36.274Z,101420.92
2022-10-20T06:30:05.391Z,101417.23
2022-10-20T06:32:35.063Z,101423.77
2022-10-20T06:35:04.954Z,101424.96
2022-10-20T06:37:34.571Z,101421.98
2022-10-20T06:40:04.495Z,101427.67
2022-10-20T06:42:33.781Z,101425.52
2022-10-20T06:45:03.515Z,101423.88
2022-10-20T06:47:32.749Z,101421.67
2022-10-20T06:50:01.981Z,101425.08
2022-10-20T06:52:31.213Z,101428.66
2022-10-20T06:55:00.438Z,101428.92
2022-10-20T06:57:31.306Z,101427.02
2022-10-20T06:59:59.739Z,101431.08
2022-10-20T07:02:28.788Z,101433.40
2022-10-20T07:04:57.776Z,101437.27
2022-10-20T07:07:26.506Z,101435.64
2022-10-20T07:09:55.314Z,101440.29
2022-10-20T07:12:24.141Z,101439.23
2022-10-20T07:14:53.149Z,101442.25
2022-10-20T07:17:22.584Z,101445.46
2022-10-20T07:19:51.567Z,101446.39
2022-10-20T07:22:20.040Z,101451.48
2022-10-20T07:24:49.423Z,101450.95
2022-10-20T07:27:17.891Z,101457.73
2022-10-20T07:29:46.131Z,101455.06
2022-10-20T07:32:14.494Z,101462.95
2022-10-20T07:34:43.594Z,101457.04
2022-10-20T07:37:12.191Z,101461.18
2022-10-20T07:39:40.659Z,101461.91
2022-10-20T07:42:09.570Z,101461.59
2022-10-20T07:44:38.379Z,101461.52
2022-10-20T07:47:07.223Z,101465.32
2022-10-20T07:49:44.012Z,101465.28
2022-10-20T07:52:14.300Z,101466.55
2022-10-20T07:54:43.372Z,101467.65
2022-10-20T07:57:12.153Z,101469.53
2022-10-20T07:59:41.532Z,101466.48
2022-10-20T08:02:11.100Z,101465.96
2022-10-20T08:04:42.498Z,101468.22
2022-10-20T08:07:12.373Z,101467.20
2022-10-20T08:09:40.822Z,101466.48
2022-10-20T08:12:09.993Z,101461.92
2022-10-20T08:14:38.503Z,101460.27
2022-10-20T08:17:07.309Z,101458.67
2022-10-20T08:19:45.362Z,101456.16
2022-10-20T08:22:15.182Z,101451.73
2022-10-20T08:24:44.697Z,101456.23
2022-10-20T08:27:14.267Z,101452.44
2022-10-20T08:29:54.980Z,101453.29
2022-10-20T08:32:35.454Z,101449.14
2022-10-20T08:35:04.616Z,101452.23
2022-10-20T08:37:33.780Z,101449.54
2022-10-20T08:40:05.029Z,101450.67
2022-10-20T08:42:38.235Z,101447.05
2022-10-20T08:45:07.036Z,101448.05
2022-10-20T08:47:38.057Z,101447.20
2022-10-20T08:50:09.991Z,101446.30
2022-10-20T08:52:41.084Z,101445.81
2022-10-20T08:55:25.330Z,101446.08
2022-10-20T08:57:57.626Z,101446.41
2022-10-20T09:00:26.462Z,101446.71
2022-10-20T09:02:55.860Z,101443.81
2022-10-20T09:05:27.639Z,101447.27
2022-10-20T09:07:56.391Z,101449.52
2022-10-20T09:10:34.391Z,101441.88
2022-10-20T09:13:07.500Z,101441.88
2022-10-20T09:15:37.647Z,101446.80
2022-10-20T09:18:10.747Z,101449.82
2022-10-20T09:20:39.924Z,101450.08
2022-10-20T09:23:39.533Z,101449.14
2022-10-20T09:26:16.123Z,101450.98
2022-10-20T09:29:12.827Z,101446.81
2022-10-20T09:31:43.545Z,101448.97
2022-10-20T09:34:32.753Z,101447.80
2022-10-20T09:37:08.173Z,101447.46
2022-10-20T09:39:39.423Z,101450.83
2022-10-20T09:42:14.971Z,101450.84
2022-10-20T09:44:49.585Z,101445.32
2022-10-20T09:47:18.334Z,101437.54
2022-10-20T09:49:47.536Z,101438.84
2022-10-20T09:52:18.612Z,101441.43
2022-10-20T09:54:48.367Z,101442.85
2022-10-20T09:57:19.039Z,101442.96
2022-10-20T09:59:49.529Z,101442.81
2022-10-20T10:02:21.122Z,101440.20
2022-10-20T10:04:51.797Z,101436.96
2022-10-20T10:07:22.799Z,101437.94
2022-10-20T10:09:54.079Z,101437.08
2022-10-20T10:12:24.381Z,101435.66
2022-10-20T10:14:54.391Z,101432.73
2022-10-20T10:17:33.969Z,101427.58
2022-10-20T10:20:08.014Z,101424.02
2022-10-20T10:22:37.499Z,101419.32
2022-10-20T10:25:08.726Z,101413.52
2022-10-20T10:27:37.141Z,101413.08
2022-10-20T10:30:28.355Z,101409.23
2022-10-20T10:32:57.638Z,101407.59
2022-10-20T10:35:44.143Z,101405.34
2022-10-20T10:38:14.185Z,101403.14
2022-10-20T10:41:03.235Z,101403.16
2022-10-20T10:43:42.739Z,101402.09
2022-10-20T10:46:21.740Z,101397.25
2022-10-20T10:48:57.904Z,101394.73
2022-10-20T10:51:30.381Z,101392.61
2022-10-20T10:54:12.263Z,101386.10
2022-10-20T10:56:41.602Z,101377.75
2022-10-20T10:59:12.944Z,101377.39
2022-10-20T11:01:56.650Z,101368.65
2022-10-20T11:04:27.894Z,101358.44
2022-10-20T11:07:09.379Z,101355.43
2022-10-20T11:09:56.924Z,101351.46
2022-10-20T11:12:44.540Z,101351.73
2022-10-20T11:15:12.992Z,101346.61
2022-10-20T11:17:49.401Z,101342.38
2022-10-20T11:20:27.466Z,101341.66
2022-10-20T11:22:56.365Z,101337.46
2022-10-20T11:25:38.426Z,101341.15
2022-10-20T11:28:13.775Z,101331.55
2022-10-20T11:30:43.041Z,101328.33
2022-10-20T11:33:17.898Z,101328.42
2022-10-20T11:35:50.023Z,101326.83
2022-10-20T11:38:32.367Z,101328.23
2022-10-20T11:41:01.478Z,101323.19
2022-10-20T11:43:38.142Z,101323.45
2022-10-20T11:46:14.951Z,101318.55
2022-10-20T11:48:52.373Z,101312.93
2022-10-20T11:51:21.485Z,101312.72
2022-10-20T11:53:56.704Z,101314.29
2022-10-20T11:56:35.676Z,101308.57
2022-10-20T11:59:13.855Z,101307.81
2022-10-20T12:01:59.804Z,101305.14
2022-10-20T12:04:34.809Z,101306.48
2022-10-20T12:07:06.874Z,101309.61
2022-10-20T12:10:12.400Z,101308.73
2022-10-20T12:12:50.384Z,101305.67
2022-10-20T12:15:23.929Z,101308.70
2022-10-20T12:17:54.666Z,101307.99
2022-10-20T12:20:23.047Z,101308.99
2022-10-20T12:22:53.615Z,101309.66
2022-10-20T12:25:25.693Z,101307.71
2022-10-20T12:28:13.895Z,101304.38
2022-10-20T12:30:44.074Z,101302.27
2022-10-20T12:33:18.282Z,101300.40
2022-10-20T12:36:14.311Z,101301.36
2022-10-20T12:38:44.550Z,101299.52
2022-10-20T12:41:25.949Z,101299.35
2022-10-20T12:43:59.455Z,101297.89
2022-10-20T12:46:32.037Z,101293.77
2022-10-20T12:49:11.047Z,101289.52
2022-10-20T12:51:49.349Z,101287.02
2022-10-20T12:54:25.098Z,101279.38
2022-10-20T12:56:57.157Z,101277.18
2022-10-20T12:59:31.996Z,101277.73
2022-10-20T13:02:10.449Z,101277.84
2022-10-20T13:04:58.847Z,101275.50
2022-10-20T13:07:46.037Z,101272.44
2022-10-20T13:10:35.267Z,101267.91
2022-10-20T13:13:04.695Z,101266.39
2022-10-20T13:15:37.938Z,101263.36
2022-10-20T13:18:07.352Z,101263.77
2022-10-20T13:20:55.481Z,101260.88
2022-10-20T13:23:30.678Z,101262.29
2022-10-20T13:26:00.123Z,101264.13
2022-10-20T13:28:29.889Z,101264.59
2022-10-20T13:31:07.896Z,101264.43
2022-10-20T13:34:03.437Z,101262.81
2022-10-20T13:36:49.342Z,101262.33
2022-10-20T13:39:26.915Z,101256.98
2022-10-20T13:42:01.837Z,101255.59
2022-10-20T13:44:40.949Z,101255.41
2022-10-20T13:47:30.943Z,101256.13
2022-10-20T13:49:59.413Z,101255.69
2022-10-20T13:52:31.264Z,101251.73
2022-10-20T13:55:00.318Z,101248.58
2022-10-20T13:57:34.082Z,101246.27
2022-10-20T14:00:06.135Z,101247.45
2022-10-20T14:02:36.880Z,101247.52
2022-10-20T14:05:08.474Z,101249.23
2022-10-20T14:07:39.513Z,101249.46
2022-10-20T14:10:20.605Z,101245.00
2022-10-20T14:12:48.895Z,101242.74
2022-10-20T14:15:21.143Z,101242.89
2022-10-20T14:18:00.837Z,101242.13
2022-10-20T14:20:29.939Z,101243.66
2022-10-20T14:22:59.981Z,101244.08
2022-10-20T14:25:29.660Z,101239.74
2022-10-20T14:27:59.052Z,101238.44
2022-10-20T14:30:28.221Z,101238.36
2022-10-20T14:32:57.045Z,101241.79
2022-10-20T14:35:30.788Z,101238.65
2022-10-20T14:38:06.555Z,101236.74
2022-10-20T14:40:36.226Z,101239.47
2022-10-20T14:43:13.649Z,101239.88
2022-10-20T14:46:04.610Z,101237.11
2022-10-20T14:48:38.977Z,101243.77
2022-10-20T14:51:26.132Z,101240.76
2022-10-20T14:57:08.603Z,101233.07
2022-10-20T14:59:49.450Z,101228.95
2022-10-20T15:02:20.944Z,101228.04
2022-10-20T15:04:52.579Z,101225.07
2022-10-20T15:07:24.016Z,101225.92
2022-10-20T15:09:54.671Z,101217.13
2022-10-20T15:12:30.733Z,101215.94
2022-10-20T15:15:19.517Z,101214.59
2022-10-20T15:17:50.086Z,101211.20
2022-10-20T15:20:39.702Z,101212.23
2022-10-20T15:23:10.127Z,101210.83
2022-10-20T15:25:42.461Z,101206.31
2022-10-20T15:28:35.362Z,101203.21
2022-10-20T15:31:06.710Z,101201.65
2022-10-20T15:33:37.887Z,101198.58
2022-10-20T15:36:16.715Z,101197.23
2022-10-20T15:38:50.861Z,101196.38
2022-10-20T15:41:21.162Z,101190.29
2022-10-20T15:43:49.858Z,101195.94
2022-10-20T15:46:19.724Z,101201.81
2022-10-20T15:48:48.964Z,101197.29
2022-10-20T15:51:23.483Z,101196.67
2022-10-20T15:53:52.205Z,101200.08
2022-10-20T15:56:21.516Z,101198.48
2022-10-20T15:58:51.136Z,101197.05
2022-10-20T16:01:20.864Z,101193.14
2022-10-20T16:03:49.881Z,101192.75
2022-10-20T16:06:20.097Z,101191.97
2022-10-20T16:08:50.202Z,101187.83
2022-10-20T16:11:20.646Z,101188.52
2022-10-20T16:13:50.082Z,101192.91
2022-10-20T16:16:21.812Z,101196.14
2022-10-20T16:18:50.883Z,101195.47
2022-10-20T16:21:19.540Z,101199.44
2022-10-20T16:23:48.801Z,101198.52
2022-10-20T16:26:17.580Z,101199.16
2022-10-20T16:28:46.978Z,101196.30
2022-10-20T16:31:17.505Z,101198.05
2022-10-20T16:33:46.768Z,101192.96
2022-10-20T16:36:16.586Z,101194.29
2022-10-20T16:38:46.204Z,101192.69
2022-10-20T16:41:16.126Z,101194.84
2022-10-20T16:43:47.474Z,101194.48
2022-10-20T16:46:16.251Z,101187.40
2022-10-20T16:48:47.717Z,101190.02
2022-10-20T16:51:17.492Z,101196.31
2022-10-20T16:53:46.662Z,101201.40
2022-10-20T16:56:18.397Z,101198.96
2022-10-20T16:58:50.313Z,101196.68
2022-10-20T17:01:20.623Z,101197.30
2022-10-20T17:03:51.260Z,101199.89
2022-10-20T17:06:21.225Z,101197.62
2022-10-20T17:08:50.349Z,101196.23
2022-10-20T17:11:22.697Z,101198.60
2022-10-20T17:13:52.220Z,101194.58
2022-10-20T17:16:28.427Z,101192.66
2022-10-20T17:18:59.325Z,101189.30
2022-10-20T17:21:28.838Z,101185.30
2022-10-20T17:23:58.333Z,101186.20
2022-10-20T17:26:31.280Z,101184.23
2022-10-20T17:29:01.651Z,101183.89
2022-10-20T17:31:31.367Z,101183.96
2022-10-20T17:34:01.425Z,101186.98
2022-10-20T17:36:30.925Z,101191.19
2022-10-20T17:39:04.811Z,101191.34
2022-10-20T17:41:34.228Z,101193.80
2022-10-20T17:44:05.222Z,101194.76
2022-10-20T17:46:34.315Z,101193.23
2022-10-20T17:49:03.498Z,101190.35
2022-10-20T17:51:34.719Z,101189.03
2022-10-20T17:54:05.046Z,101193.03
2022-10-20T17:56:38.721Z,101188.52
2022-10-20T18:01:44.349Z,101187.09
2022-10-20T18:04:15.022Z,101186.10
2022-10-20T18:06:44.690Z,101184.88
2022-10-20T18:09:15.345Z,101178.23
2022-10-20T18:11:48.994Z,101174.59
2022-10-20T18:14:18.969Z,101172.25
2022-10-20T18:16:48.781Z,101170.24
2022-10-20T18:19:19.829Z,101171.66
2022-10-20T18:21:48.882Z,101177.23
2022-10-20T18:24:18.800Z,101179.52
2022-10-20T18:26:48.471Z,101177.81
2022-10-20T18:29:17.427Z,101180.06
2022-10-20T18:31:46.998Z,101179.41
2022-10-20T18:34:21.154Z,101181.17
2022-10-20T18:36:52.000Z,101182.95
2022-10-20T18:39:21.363Z,101182.90
2022-10-20T18:41:54.731Z,101183.91
2022-10-20T18:44:24.576Z,101179.95
2022-10-20T18:46:57.849Z,101180.77
2022-10-20T18:49:27.689Z,101177.11
2022-10-20T18:51:56.564Z,101172.57
2022-10-20T18:54:25.517Z,101177.35
2022-10-20T18:56:54.679Z,101180.34
2022-10-20T18:59:23.861Z,101184.41
2022-10-20T19:01:52.804Z,101180.46
2022-10-20T19:04:21.582Z,101180.98
2022-10-20T19:06:50.210Z,101185.91
2022-10-20T19:09:21.028Z,101184.68
2022-10-20T19:14:24.183Z,101176.58
2022-10-20T19:16:53.611Z,101171.71
2022-10-20T19:19:23.615Z,101172.83
2022-10-20T19:21:52.774Z,101163.77
2022-10-20T19:24:22.797Z,101162.72
2022-10-20T19:27:02.288Z,101167.77
2022-10-20T19:29:36.418Z,101164.50
2022-10-20T19:32:06.418Z,101158.16
2022-10-20T19:34:36.105Z,101158.11
2022-10-20T19:37:06.373Z,101156.16
2022-10-20T19:39:37.469Z,101157.15
2022-10-20T19:42:07.345Z,101160.02
2022-10-20T19:44:35.675Z,101159.57
2022-10-20T19:47:05.850Z,101153.27
2022-10-20T19:49:34.815Z,101149.86
2022-10-20T19:52:05.503Z,101142.48
2022-10-20T19:54:34.730Z,101135.56
2022-10-20T19:57:03.836Z,101129.84
2022-10-20T19:59:32.619Z,101127.34
2022-10-20T20:02:02.482Z,101128.05
2022-10-20T20:04:31.099Z,101126.95
2022-10-20T20:07:02.175Z,101127.22
2022-10-20T20:09:32.036Z,101126.73
2022-10-20T20:12:00.825Z,101129.17
2022-10-20T20:14:29.482Z,101125.78
2022-10-20T20:16:58.666Z,101127.69
2022-10-20T20:19:27.186Z,101128.61
2022-10-20T20:21:55.555Z,101127.55
2022-10-20T20:24:24.410Z,101126.07
2022-10-20T20:26:52.974Z,101124.48
2022-10-20T20:29:21.855Z,101115.61
2022-10-20T20:31:50.914Z,101113.12
2022-10-20T20:34:19.418Z,101110.24
2022-10-20T20:36:48.108Z,101103.90
2022-10-20T20:39:16.692Z,101093.54
2022-10-20T20:41:45.441Z,101091.75
2022-10-20T20:44:14.566Z,101087.87
2022-10-20T20:46:42.948Z,101087.91
2022-10-20T20:49:11.261Z,101079.97
2022-10-20T20:51:40.097Z,101068.14
2022-10-20T20:54:10.947Z,101067.02
2022-10-20T20:56:39.603Z,101067.41
2022-10-20T20:59:08.667Z,101067.33
2022-10-20T21:01:37.783Z,101068.14
2022-10-20T21:04:11.457Z,101071.92
2022-10-20T21:07:02.062Z,101066.78
2022-10-20T21:09:31.481Z,101068.58
2022-10-20T21:12:00.233Z,101074.72
2022-10-20T21:14:29.227Z,101076.54
2022-10-20T21:16:57.976Z,101073.77
2022-10-20T21:19:27.079Z,101072.92
2022-10-20T21:21:58.669Z,101064.77
2022-10-20T21:24:27.957Z,101057.50
2022-10-20T21:26:57.487Z,101056.35
2022-10-20T21:29:26.434Z,101048.81
2022-10-20T21:31:58.936Z,101045.93
2022-10-20T21:34:27.559Z,101037.73
2022-10-20T21:36:56.621Z,101033.80
2022-10-20T21:39:25.629Z,101032.75
2022-10-20T21:41:54.658Z,101029.13
2022-10-20T21:44:23.217Z,101023.23
2022-10-20T21:46:52.627Z,101020.75
2022-10-20T21:49:26.755Z,101008.56
2022-10-20T21:51:57.665Z,101001.56
2022-10-20T21:54:28.162Z,100995.84
2022-10-20T21:56:57.828Z,100989.77
2022-10-20T21:59:28.978Z,100992.32
2022-10-20T22:01:59.878Z,100992.89
2022-10-20T22:04:30.108Z,100988.73
2022-10-20T22:06:59.904Z,100987.88
2022-10-20T22:09:28.998Z,100986.52
2022-10-20T22:12:00.195Z,100983.22
2022-10-20T22:14:30.961Z,100987.75
2022-10-20T22:16:59.672Z,100992.45
2022-10-20T22:19:28.769Z,100999.89
2022-10-20T22:24:34.016Z,101009.62
2022-10-20T22:27:11.415Z,101009.13
2022-10-20T22:29:51.403Z,101008.63
2022-10-20T22:32:22.802Z,101010.71
2022-10-20T22:34:52.142Z,101013.20
2022-10-20T22:37:21.845Z,101014.70
2022-10-20T22:39:50.885Z,101007.44
2022-10-20T22:42:22.528Z,101010.50
2022-10-20T22:44:54.620Z,101011.14
2022-10-20T22:47:24.164Z,101013.82
2022-10-20T22:49:53.329Z,101014.30
2022-10-20T22:52:22.670Z,101012.48
2022-10-20T22:54:51.751Z,101012.45
2022-10-20T22:57:21.030Z,101010.21
2022-10-20T22:59:49.959Z,101012.16
2022-10-20T23:02:20.044Z,101004.69
2022-10-20T23:04:49.141Z,101005.65
2022-10-20T23:07:18.324Z,100999.34
2022-10-20T23:09:47.831Z,100995.13
2022-10-20T23:12:16.947Z,100996.58
2022-10-20T23:14:46.072Z,101002.69
2022-10-20T23:17:15.043Z,101008.05
2022-10-20T23:19:44.386Z,101007.75
2022-10-20T23:22:13.819Z,101002.10
2022-10-20T23:24:43.097Z,101002.00
2022-10-20T23:27:12.212Z,101000.83
2022-10-20T23:29:40.970Z,101000.33
2022-10-20T23:32:10.401Z,100997.15
2022-10-20T23:34:39.286Z,100996.27
2022-10-20T23:37:08.248Z,100994.88
2022-10-20T23:39:37.209Z,100994.59
2022-10-20T23:42:07.313Z,100990.73
2022-10-20T23:44:36.599Z,100991.15
2022-10-20T23:47:06.186Z,100995.46
2022-10-20T23:49:37.898Z,100992.80
2022-10-20T23:52:07.060Z,100999.61
2022-10-20T23:54:36.357Z,100998.23
2022-10-20T23:57:05.273Z,100997.13
2022-10-20T23:59:34.228Z,100994.17
